createdAt,value
2022-12-11T00:02:11.661Z,-1.02
2022-12-11T00:04:38.252Z,-1.02
2022-12-11T00:07:04.792Z,-1.02
2022-12-11T00:09:31.544Z,-1.03
2022-12-11T00:11:58.052Z,-1.04
2022-12-11T00:14:24.557Z,-1.03
2022-12-11T00:16:51.098Z,-1.04
2022-12-11T00:19:17.593Z,-1.05
2022-12-11T00:21:44.138Z,-1.07
2022-12-11T00:24:10.680Z,-1.11
2022-12-11T00:26:37.247Z,-1.14
2022-12-11T00:29:04.165Z,-1.16
2022-12-11T00:31:31.352Z,-1.16
2022-12-11T00:33:58.072Z,-1.17
2022-12-11T00:36:26.667Z,-1.17
2022-12-11T00:38:54.233Z,-1.16
2022-12-11T00:41:20.966Z,-1.14
2022-12-11T00:43:47.915Z,-1.15
2022-12-11T00:46:15.062Z,-1.17
2022-12-11T00:48:41.791Z,-1.18
2022-12-11T00:51:08.581Z,-1.19
2022-12-11T00:53:35.069Z,-1.22
2022-12-11T00:56:01.512Z,-1.24
2022-12-11T00:58:28.486Z,-1.27
2022-12-11T01:00:55.239Z,-1.29
2022-12-11T01:03:21.861Z,-1.29
2022-12-11T01:05:55.761Z,-1.30
2022-12-11T01:08:22.457Z,-1.32
2022-12-11T01:10:49.088Z,-1.33
2022-12-11T01:13:16.210Z,-1.34
2022-12-11T01:15:45.517Z,-1.35
2022-12-11T01:18:13.803Z,-1.37
2022-12-11T01:20:42.113Z,-1.38
2022-12-11T01:23:08.590Z,-1.39
2022-12-11T01:25:36.011Z,-1.39
2022-12-11T01:28:02.736Z,-1.39
2022-12-11T01:30:29.257Z,-1.39
2022-12-11T01:32:55.742Z,-1.39
2022-12-11T01:35:22.661Z,-1.41
2022-12-11T01:37:49.495Z,-1.41
2022-12-11T01:40:19.487Z,-1.41
2022-12-11T01:42:46.492Z,-1.42
2022-12-11T01:45:24.683Z,-1.41
2022-12-11T01:48:05.326Z,-1.43
2022-12-11T01:50:36.743Z,-1.44
2022-12-11T01:53:06.145Z,-1.45
2022-12-11T01:55:34.422Z,-1.45
2022-12-11T01:58:02.480Z,-1.45
2022-12-11T02:00:29.011Z,-1.43
2022-12-11T02:02:55.483Z,-1.43
2022-12-11T02:05:22.210Z,-1.41
2022-12-11T02:07:53.911Z,-1.41
2022-12-11T02:10:22.077Z,-1.40
2022-12-11T02:12:59.010Z,-1.38
2022-12-11T02:15:37.977Z,-1.37
2022-12-11T02:18:31.435Z,-1.39
2022-12-11T02:21:05.735Z,-1.40
2022-12-11T02:23:44.482Z,-1.39
2022-12-11T02:26:13.916Z,-1.38
2022-12-11T02:28:49.335Z,-1.38
2022-12-11T02:31:28.019Z,-1.39
2022-12-11T02:34:06.992Z,-1.41
2022-12-11T02:36:37.816Z,-1.43
2022-12-11T02:39:07.648Z,-1.44
2022-12-11T02:41:34.801Z,-1.44
2022-12-11T02:44:04.160Z,-1.46
2022-12-11T02:46:33.823Z,-1.46
2022-12-11T02:49:03.002Z,-1.45
2022-12-11T02:51:34.485Z,-1.46
2022-12-11T02:54:02.238Z,-1.45
2022-12-11T02:56:34.115Z,-1.46
2022-12-11T02:59:07.054Z,-1.46
2022-12-11T03:01:33.796Z,-1.45
2022-12-11T03:04:00.581Z,-1.45
2022-12-11T03:06:36.152Z,-1.47
2022-12-11T03:09:04.928Z,-1.47
2022-12-11T03:11:31.483Z,-1.48
2022-12-11T03:13:59.180Z,-1.48
2022-12-11T03:17:07.158Z,-1.46
2022-12-11T03:19:41.477Z,-1.50
2022-12-11T03:22:26.853Z,-1.51
2022-12-11T03:25:00.769Z,-1.51
2022-12-11T03:27:37.863Z,-1.52
2022-12-11T03:30:16.140Z,-1.53
2022-12-11T03:32:58.024Z,-1.54
2022-12-11T03:35:37.067Z,-1.55
2022-12-11T03:38:12.259Z,-1.54
2022-12-11T03:40:42.453Z,-1.54
2022-12-11T03:43:11.329Z,-1.54
2022-12-11T03:45:40.038Z,-1.54
2022-12-11T03:48:10.003Z,-1.55
2022-12-11T03:50:37.124Z,-1.55
2022-12-11T03:53:05.111Z,-1.56
2022-12-11T03:55:33.509Z,-1.58
2022-12-11T03:58:00.139Z,-1.59
2022-12-11T04:00:27.054Z,-1.60
2022-12-11T04:02:53.755Z,-1.62
2022-12-11T04:05:20.298Z,-1.61
2022-12-11T04:07:46.808Z,-1.62
2022-12-11T04:10:13.294Z,-1.66
2022-12-11T04:12:39.657Z,-1.67
2022-12-11T04:15:06.463Z,-1.68
2022-12-11T04:17:36.268Z,-1.68
2022-12-11T04:20:03.894Z,-1.69
2022-12-11T04:22:30.294Z,-1.71
2022-12-11T04:24:56.797Z,-1.72
2022-12-11T04:27:23.574Z,-1.71
2022-12-11T04:29:50.182Z,-1.70
2022-12-11T04:32:16.724Z,-1.70
2022-12-11T04:34:43.267Z,-1.69
2022-12-11T04:37:09.804Z,-1.67
2022-12-11T04:39:36.252Z,-1.67
2022-12-11T04:42:02.716Z,-1.66
2022-12-11T04:44:29.220Z,-1.65
2022-12-11T04:46:55.854Z,-1.68
2022-12-11T04:49:22.304Z,-1.70
2022-12-11T04:51:48.948Z,-1.70
2022-12-11T04:54:15.630Z,-1.72
2022-12-11T04:56:42.123Z,-1.75
2022-12-11T04:59:08.561Z,-1.76
2022-12-11T05:01:35.446Z,-1.77
2022-12-11T05:04:02.017Z,-1.78
2022-12-11T05:06:28.686Z,-1.79
2022-12-11T05:08:55.326Z,-1.78
2022-12-11T05:11:21.799Z,-1.78
2022-12-11T05:13:48.307Z,-1.78
2022-12-11T05:16:16.761Z,-1.78
2022-12-11T05:18:43.836Z,-1.78
2022-12-11T05:21:13.646Z,-1.79
2022-12-11T05:23:41.051Z,-1.79
2022-12-11T05:26:11.887Z,-1.79
2022-12-11T05:28:39.385Z,-1.81
2022-12-11T05:31:18.185Z,-1.83
2022-12-11T05:33:46.669Z,-1.83
2022-12-11T05:36:21.994Z,-1.83
2022-12-11T05:38:49.116Z,-1.85
2022-12-11T05:41:18.580Z,-1.84
2022-12-11T05:43:45.148Z,-1.84
2022-12-11T05:46:21.029Z,-1.83
2022-12-11T05:48:50.080Z,-1.81
2022-12-11T05:51:17.721Z,-1.83
2022-12-11T05:53:45.384Z,-1.86
2022-12-11T05:56:20.890Z,-1.86
2022-12-11T05:58:48.615Z,-1.89
2022-12-11T06:01:19.281Z,-1.90
2022-12-11T06:03:45.797Z,-1.91
2022-12-11T06:06:12.519Z,-1.93
2022-12-11T06:08:38.938Z,-1.93
2022-12-11T06:11:06.312Z,-1.93
2022-12-11T06:13:33.632Z,-1.93
2022-12-11T06:16:02.449Z,-1.93
2022-12-11T06:18:29.614Z,-1.94
2022-12-11T06:20:56.121Z,-1.94
2022-12-11T06:23:23.545Z,-1.91
2022-12-11T06:25:50.154Z,-1.90
2022-12-11T06:28:17.088Z,-1.90
2022-12-11T06:30:43.538Z,-1.91
2022-12-11T06:33:10.077Z,-1.91
2022-12-11T06:35:41.929Z,-1.92
2022-12-11T06:38:09.680Z,-1.94
2022-12-11T06:40:36.221Z,-1.94
2022-12-11T06:43:02.643Z,-1.95
2022-12-11T06:45:29.180Z,-1.96
2022-12-11T06:47:55.703Z,-1.97
2022-12-11T06:50:22.316Z,-1.98
2022-12-11T06:52:48.838Z,-2.00
2022-12-11T06:55:15.581Z,-2.00
2022-12-11T06:57:42.222Z,-1.99
2022-12-11T07:00:09.558Z,-2.01
2022-12-11T07:02:36.109Z,-2.03
2022-12-11T07:05:03.070Z,-2.04
2022-12-11T07:07:29.611Z,-2.03
2022-12-11T07:09:56.332Z,-2.03
2022-12-11T07:12:22.894Z,-2.03
2022-12-11T07:14:49.411Z,-2.03
2022-12-11T07:17:16.135Z,-2.03
2022-12-11T07:19:42.925Z,-2.03
2022-12-11T07:22:09.466Z,-2.01
2022-12-11T07:24:36.248Z,-1.97
2022-12-11T07:27:02.735Z,-1.93
2022-12-11T07:29:29.420Z,-1.93
2022-12-11T07:31:56.274Z,-1.92
2022-12-11T07:34:22.879Z,-1.91
2022-12-11T07:36:49.328Z,-1.89
2022-12-11T07:39:16.277Z,-1.88
2022-12-11T07:41:42.920Z,-1.88
2022-12-11T07:44:09.459Z,-1.87
2022-12-11T07:46:36.069Z,-1.88
2022-12-11T07:49:02.604Z,-1.88
2022-12-11T07:51:34.898Z,-1.89
2022-12-11T07:54:05.446Z,-1.89
2022-12-11T07:56:32.592Z,-1.88
2022-12-11T07:59:04.527Z,-1.87
2022-12-11T08:01:33.694Z,-1.83
2022-12-11T08:04:00.174Z,-1.80
2022-12-11T08:06:29.294Z,-1.74
2022-12-11T08:08:57.323Z,-1.72
2022-12-11T08:11:24.640Z,-1.71
2022-12-11T08:13:51.125Z,-1.68
2022-12-11T08:16:18.571Z,-1.68
2022-12-11T08:18:46.724Z,-1.69
2022-12-11T08:21:16.559Z,-1.71
2022-12-11T08:23:43.282Z,-1.73
2022-12-11T08:26:30.812Z,-1.73
2022-12-11T08:28:59.046Z,-1.70
2022-12-11T08:31:25.841Z,-1.69
2022-12-11T08:33:53.914Z,-1.69
2022-12-11T08:36:22.533Z,-1.68
2022-12-11T08:38:49.774Z,-1.69
2022-12-11T08:41:19.476Z,-1.69
2022-12-11T08:43:46.644Z,-1.70
2022-12-11T08:46:14.176Z,-1.71
2022-12-11T08:48:42.378Z,-1.72
2022-12-11T08:51:12.873Z,-1.73
2022-12-11T08:53:40.106Z,-1.74
2022-12-11T08:56:09.548Z,-1.75
2022-12-11T08:58:36.119Z,-1.75
2022-12-11T09:01:10.778Z,-1.72
2022-12-11T09:03:38.308Z,-1.67
2022-12-11T09:06:06.599Z,-1.66
2022-12-11T09:08:34.253Z,-1.64
2022-12-11T09:11:10.324Z,-1.62
2022-12-11T09:13:37.839Z,-1.61
2022-12-11T09:16:09.716Z,-1.57
2022-12-11T09:18:37.523Z,-1.54
2022-12-11T09:21:10.433Z,-1.52
2022-12-11T09:23:37.801Z,-1.51
2022-12-11T09:26:06.144Z,-1.48
2022-12-11T09:28:33.485Z,-1.46
2022-12-11T09:31:00.222Z,-1.44
2022-12-11T09:33:26.729Z,-1.39
2022-12-11T09:36:00.902Z,-1.34
2022-12-11T09:38:27.538Z,-1.31
2022-12-11T09:40:55.021Z,-1.28
2022-12-11T09:43:30.971Z,-1.25
2022-12-11T09:46:00.795Z,-1.23
2022-12-11T09:48:28.060Z,-1.21
2022-12-11T09:50:55.605Z,-1.18
2022-12-11T09:53:33.934Z,-1.16
2022-12-11T09:56:16.848Z,-1.12
2022-12-11T09:58:54.347Z,-0.98
2022-12-11T10:01:30.051Z,-0.83
2022-12-11T10:04:31.973Z,-0.67
2022-12-11T10:07:04.554Z,-0.45
2022-12-11T10:09:42.254Z,-0.36
2022-12-11T10:12:18.010Z,-0.30
2022-12-11T10:15:03.824Z,-0.29
2022-12-11T10:17:33.105Z,-0.24
2022-12-11T10:20:38.276Z,-0.20
2022-12-11T10:23:09.644Z,-0.11
2022-12-11T10:25:40.757Z,-0.02
2022-12-11T10:28:19.224Z,-0.05
2022-12-11T10:30:59.570Z,-0.13
2022-12-11T10:33:51.045Z,-0.20
2022-12-11T10:36:25.480Z,-0.31
2022-12-11T10:38:52.485Z,-0.34
2022-12-11T10:41:33.133Z,-0.33
2022-12-11T10:43:59.747Z,-0.36
2022-12-11T10:46:29.100Z,-0.38
2022-12-11T10:48:58.504Z,-0.40
2022-12-11T10:51:32.489Z,-0.48
2022-12-11T10:54:27.216Z,-0.43
2022-12-11T10:56:55.208Z,-0.46
2022-12-11T10:59:39.098Z,-0.53
2022-12-11T11:02:18.574Z,-0.56
2022-12-11T11:04:45.607Z,-0.61
2022-12-11T11:07:15.632Z,-0.71
2022-12-11T11:09:42.675Z,-0.81
2022-12-11T11:12:25.061Z,-0.86
2022-12-11T11:15:06.300Z,-0.81
2022-12-11T11:17:51.129Z,-0.76
2022-12-11T11:20:25.675Z,-0.81
2022-12-11T11:23:04.945Z,-0.87
2022-12-11T11:25:33.605Z,-0.91
2022-12-11T11:28:03.505Z,-0.94
2022-12-11T11:30:37.181Z,-0.96
2022-12-11T11:33:17.768Z,-0.97
2022-12-11T11:36:02.729Z,-0.98
2022-12-11T11:38:37.618Z,-0.97
2022-12-11T11:41:21.301Z,-1.07
2022-12-11T11:43:59.254Z,-1.23
2022-12-11T11:46:42.643Z,-1.34
2022-12-11T11:49:34.477Z,-1.40
2022-12-11T11:52:12.173Z,-1.43
2022-12-11T11:54:58.421Z,-1.47
2022-12-11T11:57:41.959Z,-1.45
2022-12-11T12:00:19.348Z,-1.43
2022-12-11T12:02:46.792Z,-1.44
2022-12-11T12:05:13.845Z,-1.43
2022-12-11T12:08:14.476Z,-1.42
2022-12-11T12:10:46.888Z,-1.44
2022-12-11T12:16:56.376Z,-1.41
2022-12-11T12:19:43.949Z,-1.36
2022-12-11T12:22:25.633Z,-1.35
2022-12-11T12:25:07.070Z,-1.33
2022-12-11T12:27:57.561Z,-1.32
2022-12-11T12:30:24.464Z,-1.27
2022-12-11T12:33:15.325Z,-1.27
2022-12-11T12:36:06.643Z,-1.27
2022-12-11T12:38:42.861Z,-1.32
2022-12-11T12:41:16.932Z,-1.34
2022-12-11T12:44:05.672Z,-1.38
2022-12-11T12:46:49.744Z,-1.44
2022-12-11T12:49:29.803Z,-1.51
2022-12-11T12:51:57.184Z,-1.57
2022-12-11T12:54:26.968Z,-1.62
2022-12-11T12:56:54.238Z,-1.64
2022-12-11T12:59:26.262Z,-1.67
2022-12-11T13:01:58.859Z,-1.72
2022-12-11T13:04:56.707Z,-1.76
2022-12-11T13:07:27.581Z,-1.79
2022-12-11T13:09:58.857Z,-1.80
2022-12-11T13:12:50.820Z,-1.79
2022-12-11T13:15:30.233Z,-1.79
2022-12-11T13:17:57.900Z,-1.81
2022-12-11T13:20:31.157Z,-1.81
2022-12-11T13:23:06.507Z,-1.82
2022-12-11T13:26:05.344Z,-1.85
2022-12-11T13:28:46.560Z,-1.85
2022-12-11T13:31:16.380Z,-1.85
2022-12-11T13:33:52.711Z,-1.86
2022-12-11T13:36:35.029Z,-1.87
2022-12-11T13:39:08.936Z,-1.88
2022-12-11T13:41:38.135Z,-1.90
2022-12-11T13:44:06.125Z,-1.91
2022-12-11T13:46:36.694Z,-1.92
2022-12-11T13:49:07.020Z,-1.95
2022-12-11T13:51:34.763Z,-1.97
2022-12-11T13:54:17.824Z,-2.00
2022-12-11T13:57:16.728Z,-2.04
2022-12-11T13:59:48.831Z,-2.09
2022-12-11T14:02:26.435Z,-2.10
2022-12-11T14:04:57.761Z,-2.11
2022-12-11T14:07:31.511Z,-2.11
2022-12-11T14:10:06.234Z,-2.11
2022-12-11T14:12:32.664Z,-2.09
2022-12-11T14:15:01.873Z,-2.08
2022-12-11T14:17:31.633Z,-2.08
2022-12-11T14:20:00.741Z,-2.07
2022-12-11T14:22:29.745Z,-2.03
2022-12-11T14:24:59.393Z,-2.01
2022-12-11T14:27:27.382Z,-2.00
2022-12-11T14:29:54.892Z,-2.00
2022-12-11T14:32:44.755Z,-2.02
2022-12-11T14:35:32.877Z,-2.05
2022-12-11T14:38:10.768Z,-2.07
2022-12-11T14:40:43.455Z,-2.07
2022-12-11T14:43:18.389Z,-2.07
2022-12-11T14:45:48.358Z,-2.07
2022-12-11T14:48:23.753Z,-2.06
2022-12-11T14:50:55.718Z,-2.04
2022-12-11T14:53:27.688Z,-2.04
2022-12-11T14:55:57.037Z,-2.03
2022-12-11T14:58:26.515Z,-2.03
2022-12-11T15:01:04.794Z,-2.03
2022-12-11T15:03:36.374Z,-2.03
2022-12-11T15:06:04.160Z,-2.03
2022-12-11T15:08:37.106Z,-2.05
2022-12-11T15:11:09.201Z,-2.05
2022-12-11T15:13:39.154Z,-2.06
2022-12-11T15:16:07.804Z,-2.06
2022-12-11T15:18:39.241Z,-2.06
2022-12-11T15:21:09.594Z,-2.06
2022-12-11T15:23:44.955Z,-2.08
2022-12-11T15:26:11.730Z,-2.07
2022-12-11T15:28:39.437Z,-2.07
2022-12-11T15:31:22.208Z,-2.07
2022-12-11T15:33:48.713Z,-2.06
2022-12-11T15:36:30.372Z,-2.07
2022-12-11T15:38:57.868Z,-2.06
2022-12-11T15:41:25.571Z,-2.08
2022-12-11T15:43:59.092Z,-2.10
2022-12-11T15:46:26.292Z,-2.09
2022-12-11T15:48:53.150Z,-2.10
2022-12-11T15:51:19.663Z,-2.10
2022-12-11T15:53:46.115Z,-2.10
2022-12-11T15:56:16.592Z,-2.10
2022-12-11T15:58:45.344Z,-2.11
2022-12-11T16:01:11.937Z,-2.12
2022-12-11T16:03:38.521Z,-2.13
2022-12-11T16:06:05.371Z,-2.13
2022-12-11T16:08:31.855Z,-2.12
2022-12-11T16:10:58.453Z,-2.13
2022-12-11T16:13:24.899Z,-2.13
2022-12-11T16:15:51.742Z,-2.13
2022-12-11T16:18:21.337Z,-2.14
2022-12-11T16:20:49.014Z,-2.15
2022-12-11T16:23:16.039Z,-2.16
2022-12-11T16:25:43.663Z,-2.15
2022-12-11T16:28:13.501Z,-2.15
2022-12-11T16:30:40.843Z,-2.15
2022-12-11T16:33:12.483Z,-2.16
2022-12-11T16:35:40.696Z,-2.17
2022-12-11T16:38:07.278Z,-2.19
2022-12-11T16:40:33.684Z,-2.22
2022-12-11T16:43:00.128Z,-2.25
2022-12-11T16:45:26.873Z,-2.28
2022-12-11T16:47:53.952Z,-2.29
2022-12-11T16:50:20.492Z,-2.28
2022-12-11T16:52:47.255Z,-2.27
2022-12-11T16:55:14.489Z,-2.26
2022-12-11T16:57:42.161Z,-2.25
2022-12-11T17:00:11.179Z,-2.26
2022-12-11T17:02:37.934Z,-2.27
2022-12-11T17:05:05.259Z,-2.28
2022-12-11T17:07:32.926Z,-2.29
2022-12-11T17:09:59.508Z,-2.31
2022-12-11T17:12:26.316Z,-2.32
2022-12-11T17:14:53.044Z,-2.33
2022-12-11T17:17:19.602Z,-2.34
2022-12-11T17:19:46.144Z,-2.35
2022-12-11T17:22:12.683Z,-2.36
2022-12-11T17:24:39.322Z,-2.36
2022-12-11T17:27:05.864Z,-2.35
2022-12-11T17:29:32.275Z,-2.37
2022-12-11T17:31:58.945Z,-2.37
2022-12-11T17:34:25.586Z,-2.38
2022-12-11T17:36:52.126Z,-2.39
2022-12-11T17:39:18.566Z,-2.39
2022-12-11T17:41:45.204Z,-2.39
2022-12-11T17:44:13.090Z,-2.38
2022-12-11T17:46:39.780Z,-2.39
2022-12-11T17:49:06.666Z,-2.39
2022-12-11T17:51:33.308Z,-2.39
2022-12-11T17:53:59.774Z,-2.40
2022-12-11T17:56:26.905Z,-2.41
2022-12-11T17:58:53.453Z,-2.42
2022-12-11T18:01:20.287Z,-2.43
2022-12-11T18:03:47.501Z,-2.45
2022-12-11T18:06:15.535Z,-2.45
2022-12-11T18:08:43.531Z,-2.47
2022-12-11T18:11:20.706Z,-2.47
2022-12-11T18:13:48.830Z,-2.45
2022-12-11T18:16:19.236Z,-2.44
2022-12-11T18:18:47.686Z,-2.43
2022-12-11T18:21:17.908Z,-2.42
2022-12-11T18:23:45.269Z,-2.42
2022-12-11T18:26:11.911Z,-2.43
2022-12-11T18:28:38.548Z,-2.42
2022-12-11T18:31:05.212Z,-2.44
2022-12-11T18:33:32.038Z,-2.43
2022-12-11T18:35:58.542Z,-2.45
2022-12-11T18:38:24.938Z,-2.45
2022-12-11T18:40:51.652Z,-2.46
2022-12-11T18:43:18.190Z,-2.47
2022-12-11T18:45:44.705Z,-2.48
2022-12-11T18:48:12.308Z,-2.48
2022-12-11T18:50:46.929Z,-2.49
2022-12-11T18:53:13.777Z,-2.49
2022-12-11T18:55:45.130Z,-2.49
2022-12-11T18:58:14.044Z,-2.47
2022-12-11T19:00:42.264Z,-2.47
2022-12-11T19:03:09.997Z,-2.48
2022-12-11T19:05:36.836Z,-2.50
2022-12-11T19:08:03.699Z,-2.51
2022-12-11T19:10:30.432Z,-2.53
2022-12-11T19:12:57.151Z,-2.54
2022-12-11T19:15:24.239Z,-2.56
2022-12-11T19:17:51.057Z,-2.58
2022-12-11T19:20:48.430Z,-2.62
2022-12-11T19:23:05.428Z,-2.64
2022-12-11T19:25:32.732Z,-2.67
2022-12-11T19:27:59.326Z,-2.70
2022-12-11T19:30:25.967Z,-2.72
2022-12-11T19:32:52.450Z,-2.76
2022-12-11T19:35:19.046Z,-2.78
2022-12-11T19:37:45.894Z,-2.79
2022-12-11T19:40:12.359Z,-2.81
2022-12-11T19:42:38.977Z,-2.83
2022-12-11T19:45:06.229Z,-2.84
2022-12-11T19:47:32.763Z,-2.85
2022-12-11T19:50:00.026Z,-2.85
2022-12-11T19:52:26.573Z,-2.85
2022-12-11T19:54:53.520Z,-2.85
2022-12-11T19:57:20.259Z,-2.87
2022-12-11T19:59:46.896Z,-2.86
2022-12-11T20:02:13.466Z,-2.88
2022-12-11T20:04:40.093Z,-2.89
2022-12-11T20:07:06.779Z,-2.89
2022-12-11T20:09:33.466Z,-2.90
2022-12-11T20:11:59.926Z,-2.91
2022-12-11T20:14:26.755Z,-2.92
2022-12-11T20:17:12.468Z,-2.92
2022-12-11T20:19:40.413Z,-2.91
2022-12-11T20:22:07.053Z,-2.92
2022-12-11T20:24:34.000Z,-2.91
2022-12-11T20:27:00.538Z,-2.89
2022-12-11T20:29:27.286Z,-2.91
2022-12-11T20:31:53.874Z,-2.91
2022-12-11T20:34:20.388Z,-2.91
2022-12-11T20:36:48.545Z,-2.92
2022-12-11T20:39:15.084Z,-2.92
2022-12-11T20:41:42.133Z,-2.92
2022-12-11T20:44:08.769Z,-2.92
2022-12-11T20:46:35.412Z,-2.93
2022-12-11T20:49:02.052Z,-2.93
2022-12-11T20:51:28.698Z,-2.94
2022-12-11T20:53:55.887Z,-2.94
2022-12-11T20:56:22.594Z,-2.94
2022-12-11T20:58:49.482Z,-2.96
2022-12-11T21:01:21.911Z,-2.95
2022-12-11T21:03:48.557Z,-2.94
2022-12-11T21:06:22.369Z,-2.94
2022-12-11T21:08:49.214Z,-2.94
2022-12-11T21:11:16.075Z,-2.94
2022-12-11T21:13:42.701Z,-2.95
2022-12-11T21:16:10.428Z,-2.96
2022-12-11T21:18:38.441Z,-2.96
2022-12-11T21:21:05.902Z,-2.96
2022-12-11T21:23:33.284Z,-2.96
2022-12-11T21:26:00.626Z,-2.97
2022-12-11T21:28:33.515Z,-2.97
2022-12-11T21:31:05.568Z,-2.98
2022-12-11T21:33:32.636Z,-2.98
2022-12-11T21:36:00.523Z,-2.98
2022-12-11T21:38:28.352Z,-3.00
2022-12-11T21:40:57.750Z,-3.00
2022-12-11T21:43:24.550Z,-2.97
2022-12-11T21:46:00.850Z,-2.98
2022-12-11T21:48:29.384Z,-2.99
2022-12-11T21:50:56.129Z,-3.00
2022-12-11T21:53:22.762Z,-3.02
2022-12-11T21:55:49.249Z,-3.04
2022-12-11T21:58:15.747Z,-3.06
2022-12-11T22:00:42.372Z,-3.08
2022-12-11T22:03:08.859Z,-3.09
2022-12-11T22:05:35.361Z,-3.11
2022-12-11T22:08:02.045Z,-3.12
2022-12-11T22:10:30.924Z,-3.13
2022-12-11T22:12:57.372Z,-3.15
2022-12-11T22:15:23.876Z,-3.16
2022-12-11T22:17:51.920Z,-3.15
2022-12-11T22:20:18.496Z,-3.15
2022-12-11T22:22:45.028Z,-3.15
2022-12-11T22:25:11.975Z,-3.16
2022-12-11T22:27:38.721Z,-3.15
2022-12-11T22:30:05.782Z,-3.14
2022-12-11T22:32:32.231Z,-3.14
2022-12-11T22:34:58.874Z,-3.14
2022-12-11T22:37:25.808Z,-3.15
2022-12-11T22:39:52.343Z,-3.16
2022-12-11T22:42:18.761Z,-3.18
2022-12-11T22:44:45.296Z,-3.21
2022-12-11T22:47:13.466Z,-3.23
2022-12-11T22:49:39.931Z,-3.26
2022-12-11T22:52:06.469Z,-3.27
2022-12-11T22:54:34.416Z,-3.28
2022-12-11T22:57:00.830Z,-3.28
2022-12-11T22:59:27.267Z,-3.29
2022-12-11T23:01:53.858Z,-3.31
2022-12-11T23:04:20.406Z,-3.31
2022-12-11T23:06:47.162Z,-3.33
2022-12-11T23:09:14.604Z,-3.33
2022-12-11T23:11:41.146Z,-3.34
2022-12-11T23:14:10.964Z,-3.34
2022-12-11T23:16:37.542Z,-3.31
2022-12-11T23:19:04.248Z,-3.31
2022-12-11T23:21:30.793Z,-3.31
2022-12-11T23:23:57.940Z,-3.30
2022-12-11T23:26:24.725Z,-3.29
2022-12-11T23:28:51.354Z,-3.28
2022-12-11T23:31:19.731Z,-3.28
2022-12-11T23:33:46.249Z,-3.26
2022-12-11T23:36:13.405Z,-3.25
2022-12-11T23:38:40.723Z,-3.24
2022-12-11T23:41:09.975Z,-3.26
2022-12-11T23:43:37.928Z,-3.28
2022-12-11T23:46:10.429Z,-3.27
2022-12-11T23:48:37.160Z,-3.26
2022-12-11T23:51:05.891Z,-3.24
2022-12-11T23:54:16.551Z,-3.23
2022-12-11T23:57:27.273Z,-3.23
